Palmer, Washington
Current Conditions -  °F | °C
As of 9:03 PM on Friday 28 Nov 2014 (Local Time) from KRNT Reporting Station
Light Rain Light Rain  
Wind Chill: 37°   Ceiling: 2200
Heat Index: 40°   Visibility: 4mi
Dew Point: 38°   Wind: 5mph
Humidity: 93%   Direction: 100°E
Pressure: 29.53"   Gusts: NA
Location:  47.3777°N, 121.913°W
Report Text: KRNT 290503Z AUTO 10004KT 4SM -RA BR FEW008 BKN022 OVC039 04/03 A2953 RMK AO2 P0001 T00440033
Loading
Personal Weather Stations






























Interactive Weather Map New forecast layout! Learn more

10-Day Weather Forecast

Advertisements
Track Severe Weather on mobile